Time;durP1;ratioP1;P1;durP2;ratioP2;P2;SDS_P1;SDS_P2;PMS_P1;PMS_P2;Temp;Humidity;BMP_temperature;BMP_pressure;BME280_temperature;BME280_humidity;BME280_pressure;Samples;Min_cycle;Max_cycle;Signal;HPM_P1;HPM_P2
2024/03/10 00:00:40;;;;;;;51.88;26.48;;;;;;;4.66;73.06;97356.16;5031283;28;20155;-76
2024/03/10 00:03:07;;;;;;;59.20;26.58;;;;;;;4.47;73.62;97355.69;5031486;28;20040;-76
2024/03/10 00:05:34;;;;;;;44.97;24.45;;;;;;;4.61;73.42;97363.22;5007278;28;20037;-76
2024/03/10 00:08:00;;;;;;;51.08;25.67;;;;;;;4.33;73.45;97357.06;5022745;28;20371;-76
2024/03/10 00:10:25;;;;;;;45.70;23.25;;;;;;;4.41;73.52;97354.00;5021486;28;20040;-76
2024/03/10 00:12:51;;;;;;;42.70;23.40;;;;;;;4.42;73.98;97355.59;5021521;28;20534;-76
2024/03/10 00:15:20;;;;;;;43.97;23.67;;;;;;;4.37;73.63;97347.63;5021669;28;20052;-76
2024/03/10 00:17:46;;;;;;;51.28;24.08;;;;;;;4.37;74.03;97339.69;5023579;28;20178;-76
2024/03/10 00:20:12;;;;;;;42.20;22.25;;;;;;;4.35;73.91;97346.25;5028036;28;20063;-76
2024/03/10 00:22:39;;;;;;;44.15;24.23;;;;;;;4.28;74.19;97357.00;5017879;28;21054;-76
2024/03/10 00:25:06;;;;;;;41.03;22.35;;;;;;;4.52;73.61;97350.44;5034398;28;20096;-75
2024/03/10 00:27:31;;;;;;;44.67;22.35;;;;;;;4.50;73.86;97330.59;5017405;28;20048;-76
2024/03/10 00:29:57;;;;;;;43.15;22.48;;;;;;;4.43;73.19;97330.78;5039266;28;20095;-76
2024/03/10 00:32:24;;;;;;;44.28;23.92;;;;;;;4.44;73.41;97337.66;5031951;28;20041;-75
2024/03/10 00:34:52;;;;;;;37.85;21.85;;;;;;;4.12;73.78;97317.47;5031839;28;20032;-75
2024/03/10 00:37:18;;;;;;;45.15;22.45;;;;;;;4.31;74.15;97332.75;5034967;28;20092;-76
2024/03/10 00:39:43;;;;;;;44.45;23.15;;;;;;;4.12;74.19;97334.09;5037358;28;20100;-76
2024/03/10 00:42:08;;;;;;;42.40;23.42;;;;;;;4.14;74.21;97331.22;5039288;28;20029;-77
2024/03/10 00:44:34;;;;;;;39.17;21.67;;;;;;;4.20;74.43;97341.59;5037459;28;20437;-76
2024/03/10 00:47:00;;;;;;;42.85;24.27;;;;;;;4.31;74.34;97343.31;5019047;28;20132;-76
2024/03/10 00:49:25;;;;;;;43.67;22.63;;;;;;;4.39;73.63;97348.16;5034791;28;20389;-76
2024/03/10 00:51:51;;;;;;;38.13;21.83;;;;;;;4.19;73.93;97353.22;5034952;28;20079;-77
2024/03/10 00:54:17;;;;;;;44.03;23.23;;;;;;;4.25;74.16;97351.41;5041707;28;20086;-77
2024/03/10 00:56:43;;;;;;;41.60;22.70;;;;;;;4.34;73.59;97357.88;5042347;28;20025;-76
2024/03/10 00:59:08;;;;;;;42.55;22.17;;;;;;;4.30;74.28;97352.28;5072433;23;20768;-79
2024/03/10 01:01:34;;;;;;;42.53;22.70;;;;;;;4.32;73.83;97350.22;5045092;28;20033;-78
2024/03/10 01:03:59;;;;;;;42.38;24.50;;;;;;;4.29;73.98;97350.69;5046425;28;20098;-79
2024/03/10 01:06:25;;;;;;;42.95;23.25;;;;;;;4.29;74.26;97340.13;5021273;28;20063;-78
2024/03/10 01:08:51;;;;;;;40.38;23.45;;;;;;;4.37;74.14;97337.06;5041632;28;20024;-78
2024/03/10 01:11:16;;;;;;;50.78;24.77;;;;;;;4.38;73.51;97336.03;5038919;28;20025;-77
2024/03/10 01:13:43;;;;;;;44.08;23.70;;;;;;;4.38;73.30;97328.09;5023023;28;20072;-78
2024/03/10 01:16:09;;;;;;;41.67;24.42;;;;;;;4.31;73.34;97322.19;5048334;28;20036;-77
2024/03/10 01:18:34;;;;;;;42.25;24.52;;;;;;;4.41;72.86;97327.59;5019270;28;20035;-79
2024/03/10 01:20:59;;;;;;;46.08;24.88;;;;;;;4.27;73.23;97305.25;5037878;28;20419;-80
2024/03/10 01:23:25;;;;;;;44.47;25.08;;;;;;;4.34;73.16;97327.00;5047187;28;20036;-78
2024/03/10 01:25:50;;;;;;;46.42;25.02;;;;;;;4.39;72.73;97326.25;5052293;28;20032;-79
2024/03/10 01:28:16;;;;;;;45.30;25.58;;;;;;;4.21;73.64;97313.34;5052262;28;20048;-78
2024/03/10 01:30:41;;;;;;;41.50;22.83;;;;;;;4.11;73.76;97313.22;5053148;28;20032;-80
2024/03/10 01:33:06;;;;;;;42.22;23.77;;;;;;;4.17;73.82;97336.00;5052162;28;20029;-79
2024/03/10 01:35:32;;;;;;;43.58;22.88;;;;;;;4.11;73.97;97336.97;5051730;28;20037;-79
2024/03/10 01:37:57;;;;;;;44.90;25.15;;;;;;;4.03;73.74;97324.19;5051977;28;20071;-80
2024/03/10 01:40:22;;;;;;;47.17;24.73;;;;;;;4.21;73.88;97330.00;5054608;28;20065;-78
2024/03/10 01:42:55;;;;;;;42.92;24.98;;;;;;;4.11;73.05;97321.94;5046231;28;20063;-77
2024/03/10 01:45:21;;;;;;;44.10;24.27;;;;;;;4.24;73.23;97332.13;5050149;28;20070;-77
2024/03/10 01:47:47;;;;;;;42.95;24.27;;;;;;;4.23;73.39;97329.75;5062510;28;20033;-79
2024/03/10 01:50:13;;;;;;;41.00;24.02;;;;;;;4.08;73.91;97322.44;5057762;28;20064;-79
2024/03/10 01:52:40;;;;;;;44.80;24.05;;;;;;;4.16;73.89;97318.56;5051457;28;20052;-79
2024/03/10 01:55:06;;;;;;;42.53;25.60;;;;;;;4.09;73.65;97317.94;5039058;28;20084;-79
2024/03/10 01:57:32;;;;;;;39.22;23.70;;;;;;;4.05;73.79;97315.00;5056769;28;20037;-79
2024/03/10 01:59:59;;;;;;;45.92;24.63;;;;;;;4.08;74.05;97305.78;5053817;28;20029;-79
2024/03/10 02:02:25;;;;;;;42.80;23.52;;;;;;;3.78;74.14;97311.44;5057432;28;20025;-79
2024/03/10 02:04:51;;;;;;;48.22;24.80;;;;;;;4.03;74.15;97311.81;5045377;28;20032;-79
2024/03/10 02:07:17;;;;;;;45.70;26.23;;;;;;;3.89;74.79;97315.81;5051549;28;20032;-78
2024/03/10 02:09:44;;;;;;;49.80;25.58;;;;;;;4.00;74.18;97314.91;5044404;28;20521;-78
2024/03/10 02:12:11;;;;;;;54.47;25.92;;;;;;;4.01;73.98;97305.97;5036024;28;20037;-80
2024/03/10 02:14:37;;;;;;;41.50;26.30;;;;;;;4.17;74.04;97318.31;5045292;28;20400;-78
2024/03/10 02:17:03;;;;;;;48.78;27.50;;;;;;;4.12;73.91;97320.91;5047278;28;20564;-78
2024/03/10 02:19:29;;;;;;;47.10;26.92;;;;;;;3.92;73.71;97314.53;5051041;28;20062;-79
2024/03/10 02:21:57;;;;;;;48.88;25.88;;;;;;;4.05;74.28;97322.09;5033926;28;20036;-79
2024/03/10 02:24:33;;;;;;;43.88;25.55;;;;;;;4.04;74.25;97323.16;5035553;28;20044;-79
2024/03/10 02:26:59;;;;;;;;;;;;;;;4.02;74.06;97333.19;5050970;28;20385;-79
2024/03/10 02:29:26;;;;;;;48.07;25.67;;;;;;;3.89;73.98;97307.13;5029736;28;19921;-79
2024/03/10 02:48:20;;;;;;;50.42;27.33;;;;;;;3.80;73.56;97288.25;5036643;28;20032;-82
2024/03/10 02:50:45;;;;;;;48.42;27.52;;;;;;;3.82;74.32;97280.91;5060250;28;20024;-79
2024/03/10 02:53:11;;;;;;;53.70;29.23;;;;;;;3.78;74.21;97270.03;5060264;28;20029;-80
2024/03/10 02:55:37;;;;;;;49.33;26.90;;;;;;;3.93;73.93;97293.22;5032599;28;20551;-78
2024/03/10 02:58:04;;;;;;;48.75;28.75;;;;;;;3.39;75.71;97307.16;5052312;28;20466;-78
2024/03/10 03:00:33;;;;;;;48.70;28.40;;;;;;;3.87;74.82;97298.66;5048731;28;20025;-78
2024/03/10 03:03:00;;;;;;;53.67;29.80;;;;;;;2.90;75.38;97303.47;5047169;28;20037;-78
2024/03/10 03:05:26;;;;;;;52.47;28.58;;;;;;;3.54;76.83;97305.56;5045871;28;20119;-81
2024/03/10 03:07:53;;;;;;;52.65;26.58;;;;;;;3.82;75.00;97298.59;5048241;28;20108;-79
2024/03/10 03:10:18;;;;;;;49.38;27.17;;;;;;;3.45;75.64;97308.88;5051836;28;20036;-79
2024/03/10 03:12:43;;;;;;;54.67;31.25;;;;;;;2.49;77.01;97295.88;5056273;28;20025;-79
2024/03/10 03:15:12;;;;;;;57.80;31.25;;;;;;;2.38;80.86;97281.69;5032516;28;20091;-79
2024/03/10 03:17:37;;;;;;;57.85;32.10;;;;;;;1.87;80.94;97273.84;5041503;28;20029;-79
2024/03/10 03:20:13;;;;;;;63.33;31.98;;;;;;;1.96;82.61;97265.38;5036078;28;20051;-78
2024/03/10 03:22:41;;;;;;;57.00;30.23;;;;;;;2.20;80.22;97287.97;5015135;28;20037;-78
2024/03/10 03:25:07;;;;;;;55.50;30.10;;;;;;;3.33;77.43;97274.66;5042975;28;20128;-77
2024/03/10 03:27:34;;;;;;;53.85;28.10;;;;;;;3.54;75.22;97281.03;5043316;28;20082;-79
2024/03/10 03:29:59;;;;;;;51.90;27.88;;;;;;;3.63;74.88;97272.47;5045738;28;20033;-79
2024/03/10 03:32:26;;;;;;;53.47;29.85;;;;;;;3.73;74.94;97263.91;5046006;28;20582;-79
2024/03/10 03:34:51;;;;;;;52.90;29.98;;;;;;;3.67;74.49;97254.28;5043521;28;20035;-79
2024/03/10 03:37:16;;;;;;;50.60;27.95;;;;;;;3.67;74.47;97256.94;5044587;28;20569;-78
2024/03/10 03:39:42;;;;;;;52.58;28.90;;;;;;;3.62;74.54;97249.78;5046289;28;20029;-78
2024/03/10 03:42:07;;;;;;;55.53;30.08;;;;;;;3.15;75.21;97237.19;5047360;28;20074;-78
2024/03/10 03:44:33;;;;;;;52.17;29.42;;;;;;;3.63;74.65;97251.38;5025814;28;20512;-77
2024/03/10 03:46:58;;;;;;;53.22;30.45;;;;;;;3.70;74.19;97241.44;5050850;28;20065;-78
2024/03/10 03:49:24;;;;;;;53.78;30.33;;;;;;;3.67;75.04;97239.28;5048705;28;20389;-77
2024/03/10 03:51:49;;;;;;;46.03;28.60;;;;;;;3.68;74.73;97238.25;5032029;28;20177;-78
2024/03/10 03:54:14;;;;;;;55.65;30.05;;;;;;;3.77;74.50;97244.72;5052027;28;20036;-77
2024/03/10 03:56:40;;;;;;;49.78;28.33;;;;;;;3.74;74.60;97239.09;5050743;28;20047;-78
2024/03/10 03:59:05;;;;;;;54.83;28.65;;;;;;;3.72;74.78;97233.28;5048837;28;20033;-77
2024/03/10 04:01:31;;;;;;;58.45;30.77;;;;;;;3.59;75.07;97225.72;5047032;28;20029;-78
2024/03/10 04:03:57;;;;;;;50.20;27.98;;;;;;;3.47;75.03;97211.84;5042298;28;20029;-77
2024/03/10 04:06:22;;;;;;;52.33;28.98;;;;;;;3.34;75.76;97231.41;5042304;28;20028;-78
2024/03/10 04:08:48;;;;;;;49.28;28.90;;;;;;;3.57;74.86;97222.53;5027591;28;20041;-80
2024/03/10 04:11:14;;;;;;;53.45;30.00;;;;;;;3.56;75.46;97215.66;5043174;28;20036;-79
2024/03/10 04:13:40;;;;;;;51.28;28.88;;;;;;;3.52;75.09;97201.34;5025153;28;20037;-79
2024/03/10 04:16:06;;;;;;;53.55;29.50;;;;;;;3.64;75.47;97221.31;5027632;28;20032;-79
2024/03/10 04:18:31;;;;;;;54.55;29.70;;;;;;;3.57;75.44;97223.31;5011599;28;20123;-82
2024/03/10 04:20:56;;;;;;;56.55;31.45;;;;;;;3.67;74.95;97230.56;5025217;28;20127;-78
2024/03/10 04:23:22;;;;;;;53.97;30.20;;;;;;;3.60;74.95;97235.22;5039474;28;20057;-80
2024/03/10 04:25:48;;;;;;;54.08;29.20;;;;;;;3.42;75.08;97194.13;5045109;28;20042;-80
2024/03/10 04:28:13;;;;;;;53.58;30.05;;;;;;;3.60;75.59;97214.13;5015643;28;20041;-78
2024/03/10 04:30:39;;;;;;;57.40;31.27;;;;;;;3.61;75.07;97202.53;5016293;28;20029;-78
2024/03/10 04:33:04;;;;;;;63.88;32.15;;;;;;;3.59;75.14;97204.59;5026503;28;20083;-79
2024/03/10 04:35:29;;;;;;;66.07;33.67;;;;;;;3.14;76.52;97203.97;5047983;28;20076;-79
2024/03/10 04:37:55;;;;;;;59.22;33.30;;;;;;;3.49;75.63;97186.84;5049122;28;20269;-78
2024/03/10 04:40:20;;;;;;;55.80;31.40;;;;;;;3.61;75.33;97207.78;5038119;28;20528;-78
2024/03/10 04:42:45;;;;;;;65.68;33.67;;;;;;;3.73;75.40;97206.63;5023012;28;20396;-79
2024/03/10 04:45:11;;;;;;;56.85;33.42;;;;;;;3.51;75.21;97190.03;5052303;28;20150;-80
2024/03/10 04:47:37;;;;;;;61.83;32.95;;;;;;;3.65;75.55;97207.06;5052664;28;20033;-80
2024/03/10 04:50:03;;;;;;;58.75;31.92;;;;;;;3.63;75.70;97203.06;5049333;28;20457;-79
2024/03/10 04:52:28;;;;;;;60.60;34.55;;;;;;;3.56;75.75;97199.84;5047044;28;20025;-79
2024/03/10 04:54:54;;;;;;;60.33;32.70;;;;;;;3.60;75.50;97201.72;5031358;28;20025;-78
2024/03/10 04:57:19;;;;;;;58.15;31.35;;;;;;;3.60;75.67;97198.31;5030868;28;20037;-79
2024/03/10 04:59:45;;;;;;;70.32;36.17;;;;;;;2.76;78.19;97192.34;5043746;28;20032;-80
2024/03/10 05:02:10;;;;;;;73.63;37.00;;;;;;;2.60;79.65;97176.53;5029613;28;20037;-80
2024/03/10 05:04:36;;;;;;;66.28;35.17;;;;;;;2.77;78.75;97182.59;5021572;28;20028;-79
2024/03/10 05:07:01;;;;;;;70.80;36.67;;;;;;;2.88;80.10;97181.72;5047492;28;20032;-78
2024/03/10 05:09:26;;;;;;;66.95;33.97;;;;;;;2.54;80.70;97182.72;5046437;28;20029;-80
2024/03/10 05:11:52;;;;;;;70.30;35.65;;;;;;;2.89;79.28;97178.03;5036988;28;20033;-80
2024/03/10 05:14:17;;;;;;;65.30;35.63;;;;;;;2.95;79.16;97171.78;5035165;28;20078;-80
2024/03/10 05:16:43;;;;;;;65.43;35.08;;;;;;;3.32;76.77;97185.28;5061520;28;20036;-79
2024/03/10 05:19:09;;;;;;;64.13;34.63;;;;;;;3.53;76.09;97171.31;5057245;28;20048;-79
2024/03/10 05:21:34;;;;;;;67.30;34.50;;;;;;;3.53;75.74;97155.47;5040339;28;20021;-78
2024/03/10 05:24:00;;;;;;;66.85;35.67;;;;;;;3.07;75.88;97169.88;5050264;28;20043;-80
2024/03/10 05:26:25;;;;;;;68.97;33.88;;;;;;;3.51;76.17;97166.28;5066288;28;20029;-79
2024/03/10 05:28:50;;;;;;;66.65;35.28;;;;;;;3.09;76.88;97159.09;5051377;28;20120;-79
2024/03/10 05:31:27;;;;;;;60.00;33.88;;;;;;;3.54;76.60;97167.59;5052938;28;20063;-79
2024/03/10 05:33:53;;;;;;;58.15;31.88;;;;;;;3.31;76.20;97175.75;5033260;28;20393;-78
2024/03/10 05:36:18;;;;;;;64.80;32.72;;;;;;;3.30;75.81;97187.34;5035696;28;20040;-79
2024/03/10 05:38:43;;;;;;;60.63;32.33;;;;;;;3.62;75.64;97188.31;5035077;28;20025;-79
2024/03/10 05:41:09;;;;;;;61.03;34.28;;;;;;;3.69;75.49;97188.94;5036966;28;20025;-78
2024/03/10 05:43:34;;;;;;;62.40;33.25;;;;;;;3.72;75.31;97191.06;5050860;28;20128;-78
2024/03/10 05:46:00;;;;;;;63.35;32.25;;;;;;;3.60;75.33;97190.38;5025257;28;20484;-79
2024/03/10 05:48:26;;;;;;;62.42;33.60;;;;;;;3.45;75.88;97185.69;5049605;28;20025;-81
2024/03/10 05:50:51;;;;;;;62.05;34.38;;;;;;;3.57;76.12;97204.06;5022796;28;20029;-79
2024/03/10 05:53:17;;;;;;;62.08;32.55;;;;;;;3.61;75.34;97205.16;4996923;28;20033;-78
2024/03/10 05:55:43;;;;;;;66.32;32.63;;;;;;;3.43;75.50;97173.81;5029902;28;20469;-79
2024/03/10 05:58:08;;;;;;;60.25;34.78;;;;;;;3.00;76.39;97183.22;5031219;28;20034;-79
2024/03/10 06:00:33;;;;;;;66.28;34.03;;;;;;;2.47;79.45;97179.47;5050310;28;20525;-78
2024/03/10 06:02:59;;;;;;;67.13;34.38;;;;;;;2.60;79.92;97187.84;5055591;28;20111;-78
2024/03/10 06:05:25;;;;;;;64.15;31.63;;;;;;;3.32;77.88;97185.28;5053069;28;20478;-78
2024/03/10 06:07:51;;;;;;;63.20;31.65;;;;;;;3.52;76.22;97169.69;5032429;28;20037;-78
2024/03/10 06:10:18;;;;;;;60.22;34.35;;;;;;;3.40;76.61;97148.72;5026765;28;20048;-79
2024/03/10 06:12:43;;;;;;;65.05;34.67;;;;;;;3.54;75.73;97151.78;5046250;28;20040;-79
2024/03/10 06:15:13;;;;;;;70.63;36.17;;;;;;;3.01;76.78;97170.84;5013666;28;20025;-79
2024/03/10 06:17:40;;;;;;;61.95;32.22;;;;;;;3.46;76.82;97146.94;5021537;28;20116;-79
2024/03/10 06:25:35;;;;;;;64.72;34.30;;;;;;;3.60;76.69;97146.31;5041422;28;20079;-79
2024/03/10 06:28:00;;;;;;;60.80;33.25;;;;;;;3.74;75.73;97160.75;5010735;28;20069;-79
2024/03/10 06:30:25;;;;;;;60.88;33.50;;;;;;;3.84;75.98;97160.09;5012693;28;20049;-78
2024/03/10 06:32:51;;;;;;;65.32;34.08;;;;;;;3.39;77.12;97139.22;5027199;28;20462;-79
2024/03/10 06:35:16;;;;;;;58.10;31.50;;;;;;;3.80;76.08;97143.13;5045872;28;20048;-79
2024/03/10 06:37:45;;;;;;;71.43;38.53;;;;;;;3.22;78.15;97162.19;5026841;28;20022;-80
2024/03/10 06:40:11;;;;;;;59.92;32.97;;;;;;;3.09;80.42;97151.19;5027583;28;20232;-79
2024/03/10 06:42:36;;;;;;;71.57;39.28;;;;;;;2.62;81.36;97138.38;5031709;28;20033;-79
2024/03/10 06:45:04;;;;;;;71.25;36.60;;;;;;;3.61;78.07;97150.56;5049153;28;20041;-79
2024/03/10 06:47:29;;;;;;;62.28;34.05;;;;;;;4.00;76.85;97166.34;5028294;28;20067;-79
2024/03/10 06:49:55;;;;;;;57.00;32.00;;;;;;;4.00;75.96;97172.38;5010800;28;20069;-79
2024/03/10 06:52:20;;;;;;;60.13;33.08;;;;;;;3.93;75.97;97169.16;4994195;28;20037;-80
2024/03/10 06:54:45;;;;;;;67.05;34.83;;;;;;;4.01;76.90;97179.28;5042585;28;20051;-79
2024/03/10 06:57:11;;;;;;;63.20;35.33;;;;;;;4.06;76.12;97173.25;5021232;28;20074;-80
2024/03/10 06:59:36;;;;;;;65.43;33.85;;;;;;;4.15;76.45;97188.38;5037320;23;20061;-77
2024/03/10 07:02:02;;;;;;;69.38;36.85;;;;;;;4.24;76.73;97170.25;4998715;28;20124;-77
2024/03/10 07:04:27;;;;;;;62.03;33.70;;;;;;;4.30;76.25;97172.69;5004789;28;20080;-77
2024/03/10 07:06:53;;;;;;;64.07;35.58;;;;;;;4.18;76.00;97177.34;5006512;28;20022;-78
2024/03/10 07:09:21;;;;;;;69.88;37.10;;;;;;;3.46;82.99;97191.78;5004387;28;20045;-77
2024/03/10 07:11:47;;;;;;;77.20;42.83;;;;;;;3.42;83.28;97196.75;5004054;28;20030;-77
2024/03/10 07:14:14;;;;;;;65.03;34.22;;;;;;;4.08;78.46;97194.91;5009080;28;20033;-77
2024/03/10 07:16:49;;;;;;;65.93;37.33;;;;;;;3.89;79.95;97189.16;5003328;28;20026;-77
2024/03/10 07:19:17;;;;;;;72.88;36.78;;;;;;;4.07;78.39;97186.19;5010205;28;20112;-79
2024/03/10 07:21:43;;;;;;;70.35;40.05;;;;;;;4.34;77.63;97189.66;5002955;28;20026;-77
2024/03/10 07:24:09;;;;;;;83.75;45.65;;;;;;;3.66;83.42;97178.84;5005200;28;20113;-77
2024/03/10 07:26:34;;;;;;;72.78;39.60;;;;;;;4.05;80.35;97156.63;5006033;28;20038;-77
2024/03/10 07:29:00;;;;;;;68.35;37.78;;;;;;;3.78;83.64;97164.50;5006630;28;20029;-76
2024/03/10 07:31:26;;;;;;;89.53;46.90;;;;;;;3.47;87.67;97159.88;5009565;28;20100;-77
2024/03/10 07:33:55;;;;;;;69.07;38.08;;;;;;;4.00;81.54;97164.47;5004281;28;20121;-77
2024/03/10 07:36:22;;;;;;;92.40;49.13;;;;;;;3.51;87.00;97162.84;5007291;28;20108;-77
2024/03/10 07:38:48;;;;;;;69.65;39.90;;;;;;;3.75;85.95;97165.00;5002790;28;20060;-78
2024/03/10 07:41:15;;;;;;;71.47;39.72;;;;;;;4.43;80.43;97171.53;5003442;28;20030;-77
2024/03/10 07:43:40;;;;;;;71.88;38.55;;;;;;;4.13;82.87;97182.56;5008024;28;20392;-77
2024/03/10 07:46:07;;;;;;;69.93;38.70;;;;;;;4.41;80.88;97186.81;5005417;28;20100;-78
2024/03/10 07:48:32;;;;;;;72.15;38.92;;;;;;;4.80;78.06;97184.78;5000666;28;20383;-78
2024/03/10 07:50:58;;;;;;;94.35;47.08;;;;;;;4.36;82.66;97186.75;5021367;28;20030;-77
2024/03/10 07:53:24;;;;;;;84.90;46.83;;;;;;;3.76;89.03;97181.59;4996454;28;20025;-78
2024/03/10 07:55:49;;;;;;;76.70;42.25;;;;;;;4.10;87.03;97187.53;4981062;28;20026;-78
2024/03/10 07:58:15;;;;;;;74.20;41.53;;;;;;;3.86;88.61;97189.66;5004704;28;20030;-78
2024/03/10 08:00:41;;;;;;;73.32;39.80;;;;;;;4.79;79.43;97197.19;4994743;28;20097;-77
2024/03/10 08:03:06;;;;;;;94.47;48.67;;;;;;;4.60;83.03;97187.25;4996533;28;20486;-77
2024/03/10 08:05:32;;;;;;;81.97;46.05;;;;;;;4.66;81.72;97188.88;4996278;28;20387;-77
2024/03/10 08:07:57;;;;;;;69.85;38.47;;;;;;;4.70;82.65;97192.59;5000837;28;20521;-78
2024/03/10 08:10:23;;;;;;;65.57;37.83;;;;;;;5.16;77.85;97192.72;4995404;28;20043;-76
2024/03/10 08:12:49;;;;;;;69.82;38.00;;;;;;;5.23;76.72;97193.31;4997868;28;20486;-79
2024/03/10 08:15:16;;;;;;;67.65;39.65;;;;;;;5.21;76.87;97200.69;4986688;28;20052;-78
2024/03/10 08:17:42;;;;;;;66.30;38.22;;;;;;;5.16;77.01;97197.22;5000771;28;20085;-78
2024/03/10 08:20:13;;;;;;;71.15;42.35;;;;;;;5.22;77.06;97204.16;5008022;28;20033;-78
2024/03/10 08:22:39;;;;;;;86.57;49.97;;;;;;;4.74;83.91;97205.06;4991033;28;20104;-78
2024/03/10 08:25:05;;;;;;;69.22;39.38;;;;;;;5.21;77.95;97192.75;5002974;28;20490;-78
2024/03/10 08:27:31;;;;;;;70.60;41.60;;;;;;;5.40;77.28;97200.28;5003556;28;20110;-77
2024/03/10 08:29:57;;;;;;;85.20;49.88;;;;;;;5.14;80.74;97207.25;5008974;28;20048;-77
2024/03/10 08:32:23;;;;;;;88.03;48.97;;;;;;;4.82;84.96;97211.75;5007777;28;20022;-77
2024/03/10 08:34:50;;;;;;;98.45;55.30;;;;;;;4.74;85.96;97206.94;4995603;28;20064;-78
2024/03/10 08:37:16;;;;;;;95.45;51.97;;;;;;;4.93;85.16;97214.25;5001060;28;20104;-78
2024/03/10 08:39:44;;;;;;;93.65;53.33;;;;;;;4.94;85.07;97213.19;5004637;28;20045;-77
2024/03/10 08:42:10;;;;;;;92.70;49.83;;;;;;;5.23;81.88;97211.00;5007536;28;20730;-78
2024/03/10 08:44:36;;;;;;;93.53;54.60;;;;;;;5.19;82.32;97191.41;5018021;28;20102;-78
2024/03/10 08:47:04;;;;;;;92.53;50.75;;;;;;;5.20;82.11;97193.00;4988431;28;20029;-78
2024/03/10 08:49:30;;;;;;;99.15;54.47;;;;;;;4.93;85.10;97195.75;5004764;28;20478;-78
2024/03/10 08:51:55;;;;;;;89.53;50.25;;;;;;;5.09;83.04;97184.22;5006061;28;20030;-78
2024/03/10 08:54:20;;;;;;;93.32;52.15;;;;;;;4.95;86.58;97180.41;4995866;28;20034;-77
2024/03/10 08:56:48;;;;;;;96.68;51.05;;;;;;;5.00;85.59;97185.72;5021034;28;20036;-79
2024/03/10 08:59:15;;;;;;;99.88;52.42;;;;;;;4.94;86.14;97180.66;5026735;28;20026;-78
2024/03/10 09:01:41;;;;;;;105.95;56.08;;;;;;;4.86;88.32;97195.16;5010398;28;21083;-78
2024/03/10 09:04:07;;;;;;;101.63;54.78;;;;;;;5.05;87.24;97190.25;4999645;28;20022;-79
2024/03/10 09:06:34;;;;;;;108.15;57.47;;;;;;;4.92;88.49;97188.03;5012620;28;20037;-77
2024/03/10 09:09:00;;;;;;;99.40;54.35;;;;;;;4.80;88.69;97187.44;5002704;28;20030;-79
2024/03/10 09:11:26;;;;;;;103.65;57.35;;;;;;;4.94;88.91;97192.03;4999515;28;20109;-78
2024/03/10 09:13:51;;;;;;;102.97;55.70;;;;;;;5.11;87.09;97179.47;4983921;28;20156;-77
2024/03/10 09:16:17;;;;;;;105.25;56.47;;;;;;;5.11;88.19;97173.41;5004218;28;20034;-79
2024/03/10 09:18:44;;;;;;;96.07;54.13;;;;;;;5.17;87.38;97161.78;4998807;28;20086;-78
2024/03/10 09:21:09;;;;;;;97.00;54.20;;;;;;;5.13;87.05;97152.78;4999246;28;20065;-78
2024/03/10 09:23:37;;;;;;;97.10;54.35;;;;;;;5.06;87.39;97165.41;5001335;28;20529;-78
2024/03/10 09:26:03;;;;;;;90.07;48.40;;;;;;;5.30;85.96;97164.00;5004028;28;20112;-79
2024/03/10 09:28:28;;;;;;;98.50;52.58;;;;;;;5.58;84.31;97191.91;4966939;28;20090;-80
2024/03/10 09:30:55;;;;;;;82.68;47.53;;;;;;;5.93;79.16;97192.09;5004097;28;20034;-80
2024/03/10 09:33:22;;;;;;;98.18;53.28;;;;;;;5.39;85.97;97188.91;5001962;28;20051;-78
2024/03/10 09:35:48;;;;;;;95.18;52.95;;;;;;;5.45;85.39;97182.59;5000655;28;20026;-79
2024/03/10 09:38:13;;;;;;;93.20;52.20;;;;;;;5.38;86.57;97182.00;5006266;28;20034;-80
2024/03/10 09:40:39;;;;;;;90.57;54.10;;;;;;;5.27;86.93;97169.78;5006277;28;20033;-78
2024/03/10 09:43:06;;;;;;;97.00;54.40;;;;;;;5.48;85.37;97155.63;4988371;28;20048;-79
2024/03/10 09:45:40;;;;;;;94.00;52.22;;;;;;;5.32;86.20;97149.47;5016303;28;20033;-78
2024/03/10 09:48:09;;;;;;;89.32;52.92;;;;;;;5.48;85.65;97158.28;5010479;28;20022;-79
2024/03/10 09:50:35;;;;;;;84.30;49.85;;;;;;;5.44;85.73;97137.88;5012863;28;20490;-79
2024/03/10 09:53:01;;;;;;;95.55;52.67;;;;;;;5.13;87.45;97144.84;4992475;28;20026;-79
2024/03/10 09:55:27;;;;;;;93.43;52.33;;;;;;;5.42;87.01;97154.00;5010896;28;20352;-79
2024/03/10 09:57:54;;;;;;;94.15;54.15;;;;;;;5.38;87.54;97142.34;5028523;28;20121;-78
2024/03/10 10:00:24;;;;;;;93.80;52.55;;;;;;;5.54;86.57;97143.22;5009470;28;20033;-80
2024/03/10 10:02:54;;;;;;;84.72;49.72;;;;;;;5.92;84.10;97138.34;5006661;28;20364;-80
2024/03/10 10:05:25;;;;;;;83.88;49.38;;;;;;;5.82;85.30;97142.78;5014932;28;20044;-79
2024/03/10 10:07:52;;;;;;;89.50;50.72;;;;;;;6.00;86.01;97151.09;5003439;28;20029;-79
2024/03/10 10:10:20;;;;;;;84.50;48.30;;;;;;;6.25;83.94;97150.34;5000090;28;20046;-79
2024/03/10 10:12:53;;;;;;;78.60;47.58;;;;;;;6.34;83.10;97147.97;5002076;28;20025;-79
2024/03/10 10:15:22;;;;;;;80.75;49.03;;;;;;;6.24;84.11;97140.03;5004997;28;20042;-78
2024/03/10 10:17:59;;;;;;;86.70;50.90;;;;;;;6.21;84.08;97129.94;4996160;28;20030;-78
2024/03/10 10:20:32;;;;;;;83.85;49.60;;;;;;;6.09;83.87;97119.63;5008185;28;20025;-79
2024/03/10 10:23:07;;;;;;;75.30;45.28;;;;;;;6.26;83.55;97122.81;5011881;28;20022;-78
2024/03/10 10:25:35;;;;;;;77.03;47.45;;;;;;;6.45;83.58;97120.44;5010388;28;20045;-78
2024/03/10 10:28:02;;;;;;;82.13;47.20;;;;;;;6.58;83.38;97106.66;5010204;28;20049;-78
2024/03/10 10:30:29;;;;;;;70.70;44.88;;;;;;;6.56;82.67;97082.28;5010895;28;20030;-78
2024/03/10 10:33:06;;;;;;;68.88;43.35;;;;;;;6.46;82.31;97048.66;5026485;28;20033;-78
2024/03/10 10:35:34;;;;;;;73.93;44.00;;;;;;;6.46;80.89;97045.19;5005538;28;20037;-78
2024/03/10 10:38:11;;;;;;;68.68;44.05;;;;;;;6.51;82.36;97048.63;5009669;28;20061;-78
2024/03/10 10:40:40;;;;;;;74.65;45.85;;;;;;;6.58;82.53;97053.66;5005859;28;20030;-78
2024/03/10 10:43:06;;;;;;;74.25;46.47;;;;;;;6.63;82.40;97037.75;5008216;28;20105;-78
2024/03/10 10:45:33;;;;;;;78.22;48.33;;;;;;;6.64;81.90;97034.81;5012564;28;20034;-78
2024/03/10 10:48:01;;;;;;;78.88;46.80;;;;;;;6.73;82.18;97051.78;5006920;28;20057;-78
2024/03/10 10:50:31;;;;;;;83.63;47.78;;;;;;;6.92;80.60;97057.34;5010232;28;20033;-78
2024/03/10 10:52:58;;;;;;;74.03;43.88;;;;;;;7.18;80.06;97060.72;5009861;28;20037;-78
2024/03/10 10:55:24;;;;;;;69.70;43.08;;;;;;;7.06;80.48;97084.06;5009281;28;20032;-78
2024/03/10 10:57:50;;;;;;;70.90;43.80;;;;;;;7.02;80.31;97085.66;5006252;28;20026;-77
2024/03/10 11:00:27;;;;;;;72.80;46.47;;;;;;;7.32;79.92;97083.72;5002835;28;20033;-79
2024/03/10 11:03:14;;;;;;;60.30;40.03;;;;;;;7.51;77.80;97082.06;5007922;28;20034;-78
2024/03/10 11:05:41;;;;;;;64.15;39.25;;;;;;;7.56;79.26;97079.41;5006648;28;20084;-78
2024/03/10 11:08:08;;;;;;;55.30;37.40;;;;;;;7.65;78.94;97082.28;5006483;28;20053;-77
2024/03/10 11:10:48;;;;;;;62.17;37.45;;;;;;;7.90;79.31;97092.78;5022745;28;20042;-79
2024/03/10 11:13:14;;;;;;;65.32;40.85;;;;;;;7.74;78.69;97085.16;5009852;28;20036;-78
2024/03/10 11:15:42;;;;;;;58.10;37.38;;;;;;;7.81;77.71;97075.03;5005473;28;20512;-79
2024/03/10 11:18:26;;;;;;;59.97;36.72;;;;;;;8.03;78.06;97091.38;5012771;28;20442;-79
2024/03/10 11:20:55;;;;;;;59.15;38.22;;;;;;;7.76;77.09;97088.34;5009317;28;20389;-79
2024/03/10 11:23:30;;;;;;;56.92;36.65;;;;;;;7.71;77.67;97081.19;5014132;28;20545;-79
2024/03/10 11:26:02;;;;;;;64.38;40.00;;;;;;;7.44;78.09;97091.41;5008892;28;20501;-76
2024/03/10 11:28:51;;;;;;;59.05;40.45;;;;;;;7.35;79.02;97085.06;5013326;28;20028;-79
2024/03/10 11:31:23;;;;;;;56.95;39.05;;;;;;;7.39;78.58;97083.44;5012542;28;20128;-79
2024/03/10 11:33:59;;;;;;;54.30;37.45;;;;;;;7.33;78.43;97088.00;5009869;28;20064;-82
2024/03/10 11:36:32;;;;;;;59.13;37.53;;;;;;;7.45;79.05;97088.47;5011971;28;20373;-79
2024/03/10 11:39:01;;;;;;;53.58;36.88;;;;;;;7.45;78.40;97088.47;5012784;28;20052;-80
2024/03/10 11:42:12;;;;;;;54.38;37.85;;;;;;;7.31;79.07;97086.66;5013474;28;20642;-79
2024/03/10 11:44:37;;;;;;;55.28;35.42;;;;;;;7.20;78.61;97080.59;5009231;28;20062;-78